Time;durP1;ratioP1;P1;durP2;ratioP2;P2;SDS_P1;SDS_P2;PMS_P1;PMS_P2;Temp;Humidity;BMP_temperature;BMP_pressure;BME280_temperature;BME280_humidity;BME280_pressure;Samples;Min_cycle;Max_cycle;Signal;HPM_P1;HPM_P2
2023/07/31 00:02:08;;;;;;;51.00;47.90;;;;;;;23.42;100.00;100427.00;5074491;28;20479;-79
2023/07/31 00:04:34;;;;;;;52.85;49.95;;;;;;;23.62;100.00;100433.91;5073183;28;20495;-79
2023/07/31 00:07:04;;;;;;;46.38;43.65;;;;;;;23.73;100.00;100429.16;5072371;28;20044;-79
2023/07/31 00:09:34;;;;;;;47.80;44.60;;;;;;;23.61;100.00;100423.38;5074294;28;20048;-85
2023/07/31 00:12:03;;;;;;;47.45;44.60;;;;;;;23.70;100.00;100414.28;5073819;28;20047;-85
2023/07/31 00:14:31;;;;;;;47.42;44.63;;;;;;;23.79;100.00;100411.69;5071597;28;20050;-85
2023/07/31 00:16:58;;;;;;;48.08;45.30;;;;;;;23.36;100.00;100427.34;5072768;28;20051;-84
2023/07/31 00:19:24;;;;;;;48.50;45.63;;;;;;;23.62;100.00;100414.94;5072534;28;20048;-78
2023/07/31 00:21:51;;;;;;;45.15;42.63;;;;;;;23.69;100.00;100428.97;5077683;28;20045;-84
2023/07/31 00:24:18;;;;;;;44.10;41.50;;;;;;;23.91;100.00;100411.97;5078763;28;20082;-81
2023/07/31 00:27:08;;;;;;;40.45;38.15;;;;;;;23.62;100.00;100427.69;5074872;28;20076;-79
2023/07/31 00:29:35;;;;;;;44.28;41.75;;;;;;;23.55;100.00;100428.91;5071352;28;20432;-79
2023/07/31 00:32:02;;;;;;;48.78;46.10;;;;;;;23.91;100.00;100406.53;5072702;28;20047;-79
2023/07/31 00:34:29;;;;;;;46.38;43.88;;;;;;;24.03;100.00;100425.03;5072786;28;20052;-79
2023/07/31 00:37:01;;;;;;;52.53;49.70;;;;;;;24.29;100.00;100416.34;5073548;28;20059;-85
2023/07/31 00:39:31;;;;;;;44.08;41.20;;;;;;;24.16;100.00;100407.91;5073348;28;20106;-85
2023/07/31 00:42:09;;;;;;;49.28;46.58;;;;;;;24.13;100.00;100403.09;5072571;28;20044;-85
2023/07/31 00:44:39;;;;;;;43.40;41.10;;;;;;;23.80;100.00;100399.72;5072598;28;20044;-85
2023/07/31 00:47:06;;;;;;;41.05;38.85;;;;;;;24.05;100.00;100411.94;5072162;28;20040;-85
2023/07/31 00:49:33;;;;;;;52.05;49.15;;;;;;;24.08;100.00;100408.63;5070200;28;20045;-85
2023/07/31 00:52:05;;;;;;;46.85;44.25;;;;;;;23.96;100.00;100409.16;5071722;28;20055;-85
2023/07/31 00:54:32;;;;;;;41.65;39.22;;;;;;;23.80;100.00;100407.06;5068363;28;20435;-85
2023/07/31 00:57:01;;;;;;;42.28;39.97;;;;;;;24.25;100.00;100405.28;5073280;28;20047;-85
2023/07/31 00:59:29;;;;;;;49.17;46.67;;;;;;;25.22;100.00;100407.66;5070668;28;20478;-85
2023/07/31 01:01:56;;;;;;;43.92;41.33;;;;;;;23.91;100.00;100406.53;5072751;28;20075;-79
2023/07/31 01:04:23;;;;;;;39.28;36.95;;;;;;;23.78;100.00;100407.34;5069636;28;20424;-79
2023/07/31 01:06:57;;;;;;;44.13;41.60;;;;;;;24.90;100.00;100395.94;5075672;28;20044;-86
2023/07/31 01:09:33;;;;;;;44.13;41.72;;;;;;;24.15;100.00;100402.81;5071808;28;20045;-79
2023/07/31 01:12:16;;;;;;;46.65;44.15;;;;;;;23.50;100.00;100404.59;5069197;28;20051;-79
2023/07/31 01:14:53;;;;;;;42.60;40.17;;;;;;;23.70;100.00;100394.50;5073372;28;20049;-85
2023/07/31 01:17:22;;;;;;;46.60;43.90;;;;;;;23.38;100.00;100407.00;5070956;28;20053;-80
2023/07/31 01:19:54;;;;;;;39.50;37.10;;;;;;;22.84;100.00;100416.53;5071424;28;20539;-84
2023/07/31 01:22:37;;;;;;;44.38;41.58;;;;;;;22.82;100.00;100416.84;5072387;28;20432;-79
2023/07/31 01:25:22;;;;;;;42.72;39.85;;;;;;;22.27;100.00;100411.16;5073149;28;20048;-79
2023/07/31 01:27:59;;;;;;;39.70;37.00;;;;;;;22.72;100.00;100416.19;5071679;28;20055;-84
2023/07/31 01:30:30;;;;;;;42.70;39.50;;;;;;;21.86;100.00;100406.22;5069623;28;20504;-85
2023/07/31 01:32:58;;;;;;;45.70;42.17;;;;;;;22.11;100.00;100420.53;5071304;28;20119;-86
2023/07/31 01:35:37;;;;;;;48.85;44.88;;;;;;;22.36;100.00;100430.22;5071583;28;20045;-85
2023/07/31 01:38:08;;;;;;;50.20;45.88;;;;;;;21.61;100.00;100428.16;5073242;28;20055;-86
2023/07/31 01:40:35;;;;;;;50.67;46.38;;;;;;;21.61;100.00;100430.84;5077836;28;20048;-86
2023/07/31 01:43:05;;;;;;;44.28;40.17;;;;;;;21.62;100.00;100427.06;5070949;28;20055;-86
2023/07/31 01:45:32;;;;;;;52.88;47.88;;;;;;;21.71;100.00;100431.53;5072377;28;20040;-86
2023/07/31 01:47:59;;;;;;;48.13;43.45;;;;;;;21.66;100.00;100449.69;5071641;28;20098;-79
2023/07/31 01:50:27;;;;;;;50.45;45.85;;;;;;;21.64;100.00;100446.50;5072092;28;20044;-79
2023/07/31 01:52:54;;;;;;;68.85;63.25;;;;;;;21.49;100.00;100455.56;5067979;28;20073;-80
2023/07/31 01:55:21;;;;;;;60.63;54.97;;;;;;;21.67;100.00;100457.53;5070813;28;20052;-85
2023/07/31 01:57:52;;;;;;;52.20;47.15;;;;;;;21.68;100.00;100456.44;5074425;28;20051;-79
2023/07/31 02:00:20;;;;;;;50.70;45.97;;;;;;;21.53;100.00;100456.59;5068389;28;20049;-78
2023/07/31 02:02:47;;;;;;;48.95;43.83;;;;;;;21.26;100.00;100457.06;5071302;28;20127;-79
2023/07/31 02:05:14;;;;;;;52.13;46.97;;;;;;;21.03;100.00;100459.44;5070494;28;20056;-79
2023/07/31 02:07:41;;;;;;;60.92;55.25;;;;;;;21.46;100.00;100453.44;5065766;28;20489;-80
2023/07/31 02:10:08;;;;;;;63.30;57.67;;;;;;;21.51;100.00;100456.06;5072326;28;20048;-84
2023/07/31 02:12:37;;;;;;;67.35;61.45;;;;;;;21.45;100.00;100468.00;5072582;28;20036;-84
2023/07/31 02:15:05;;;;;;;67.43;61.20;;;;;;;21.37;100.00;100468.63;5069250;28;20113;-84
2023/07/31 02:17:43;;;;;;;65.30;59.20;;;;;;;21.27;100.00;100464.91;5069795;28;20048;-80
2023/07/31 02:20:11;;;;;;;70.05;63.70;;;;;;;21.17;100.00;100474.97;5070453;28;20052;-80
2023/07/31 02:22:53;;;;;;;73.57;67.13;;;;;;;21.18;100.00;100482.81;5068394;28;20052;-80
2023/07/31 02:25:20;;;;;;;71.47;64.88;;;;;;;21.25;100.00;100485.19;5068775;28;20532;-80
2023/07/31 02:27:47;;;;;;;83.47;76.50;;;;;;;21.22;100.00;100491.94;5068185;28;20060;-80
2023/07/31 02:30:19;;;;;;;76.53;69.88;;;;;;;21.01;100.00;100490.50;5067130;28;20044;-81
2023/07/31 02:32:48;;;;;;;75.30;68.93;;;;;;;20.85;100.00;100497.88;5069757;28;20041;-80
2023/07/31 02:35:22;;;;;;;76.43;69.03;;;;;;;20.72;100.00;100507.38;5069141;28;20127;-81
2023/07/31 02:37:48;;;;;;;97.38;89.50;;;;;;;21.17;100.00;100496.56;5068237;28;20045;-80
2023/07/31 02:40:15;;;;;;;79.80;72.80;;;;;;;21.25;100.00;100509.47;5070508;28;20119;-81
2023/07/31 02:42:42;;;;;;;84.30;77.35;;;;;;;21.17;100.00;100515.47;5069469;28;20055;-81
2023/07/31 02:45:10;;;;;;;74.05;67.45;;;;;;;20.66;100.00;100500.41;5072663;28;20130;-81
2023/07/31 02:47:40;;;;;;;72.55;65.85;;;;;;;20.87;100.00;100497.59;5069908;28;20051;-80
2023/07/31 02:50:10;;;;;;;83.90;76.72;;;;;;;21.14;100.00;100495.25;5069625;28;20428;-80
2023/07/31 02:52:37;;;;;;;68.90;62.75;;;;;;;21.11;100.00;100492.31;5070169;28;20420;-80
2023/07/31 02:55:04;;;;;;;72.25;65.88;;;;;;;21.31;100.00;100499.44;5071013;28;20048;-81
2023/07/31 02:57:31;;;;;;;59.70;53.97;;;;;;;20.91;100.00;100498.63;5067528;28;20049;-81
2023/07/31 03:00:07;;;;;;;65.60;59.42;;;;;;;21.16;100.00;100501.19;5070019;28;20508;-81
2023/07/31 03:02:34;;;;;;;61.28;55.55;;;;;;;21.14;100.00;100507.94;5069397;28;20049;-85
2023/07/31 03:05:01;;;;;;;76.22;69.63;;;;;;;21.18;100.00;100503.56;5073677;28;20044;-84
2023/07/31 03:07:30;;;;;;;61.35;55.65;;;;;;;21.21;100.00;100503.84;5070217;28;20119;-80
2023/07/31 03:10:03;;;;;;;66.25;60.25;;;;;;;21.25;100.00;100507.59;5069235;28;20056;-84
2023/07/31 03:12:38;;;;;;;72.82;66.50;;;;;;;21.18;100.00;100501.72;5070961;28;20060;-79
2023/07/31 03:15:06;;;;;;;89.38;82.05;;;;;;;21.29;100.00;100505.13;5073972;28;20044;-81
2023/07/31 03:17:45;;;;;;;62.55;57.00;;;;;;;21.30;100.00;100500.53;5071578;28;20055;-81
2023/07/31 03:20:31;;;;;;;63.05;57.00;;;;;;;21.17;100.00;100499.28;5070006;28;20060;-85
2023/07/31 03:22:59;;;;;;;64.40;58.50;;;;;;;20.84;100.00;100498.16;5074887;28;20492;-81
2023/07/31 03:25:26;;;;;;;84.95;77.65;;;;;;;21.08;100.00;100499.06;5069654;28;20051;-85
2023/07/31 03:27:53;;;;;;;67.35;61.15;;;;;;;21.29;100.00;100502.41;5073370;28;20124;-84
2023/07/31 03:30:20;;;;;;;59.40;53.53;;;;;;;21.29;100.00;100502.41;5077046;28;20424;-80
2023/07/31 03:32:56;;;;;;;63.95;57.75;;;;;;;21.12;100.00;100502.00;5070788;28;20040;-85
2023/07/31 03:35:27;;;;;;;57.88;52.38;;;;;;;21.24;100.00;100508.69;5071552;28;20055;-81
2023/07/31 03:37:53;;;;;;;54.95;49.42;;;;;;;20.89;100.00;100507.03;5068285;28;20083;-81
2023/07/31 03:40:41;;;;;;;58.75;53.25;;;;;;;21.23;100.00;100500.84;5072943;28;20052;-81
2023/07/31 03:43:08;;;;;;;55.83;50.33;;;;;;;21.28;100.00;100496.22;5074150;28;20049;-85
2023/07/31 03:45:38;;;;;;;60.80;55.20;;;;;;;21.38;100.00;100500.75;5074425;28;20051;-85
2023/07/31 03:48:07;;;;;;;74.68;68.63;;;;;;;21.45;100.00;100495.84;5072292;28;20102;-81
2023/07/31 03:50:34;;;;;;;69.03;63.42;;;;;;;21.10;100.00;100507.69;5076574;28;20048;-82
2023/07/31 03:53:01;;;;;;;70.65;64.78;;;;;;;21.48;100.00;100503.38;5073090;28;20080;-85
2023/07/31 03:55:36;;;;;;;66.97;61.28;;;;;;;21.43;100.00;100495.31;5080898;28;20048;-85
2023/07/31 03:58:07;;;;;;;65.85;60.55;;;;;;;21.49;100.00;100501.50;5077419;28;20044;-85
2023/07/31 04:00:34;;;;;;;67.72;61.97;;;;;;;21.38;100.00;100508.84;5076183;28;20044;-85
2023/07/31 04:03:01;;;;;;;68.45;62.63;;;;;;;21.47;100.00;100512.56;5073754;28;20051;-85
2023/07/31 04:05:28;;;;;;;75.07;68.78;;;;;;;21.46;100.00;100507.47;5071962;28;20056;-85
2023/07/31 04:08:12;;;;;;;80.80;74.57;;;;;;;21.39;100.00;100528.56;5074776;28;20051;-84
2023/07/31 04:10:42;;;;;;;66.20;60.10;;;;;;;21.18;100.00;100517.09;5072233;28;20048;-84
2023/07/31 04:13:10;;;;;;;74.20;68.05;;;;;;;21.12;100.00;100519.03;5073124;28;20079;-85
2023/07/31 04:15:37;;;;;;;77.88;71.22;;;;;;;21.11;100.00;100525.50;5071166;28;20044;-85
2023/07/31 04:18:05;;;;;;;69.10;63.00;;;;;;;21.10;100.00;100525.81;5078143;28;20044;-85
2023/07/31 04:20:34;;;;;;;67.60;61.78;;;;;;;21.15;100.00;100526.56;5073608;28;20078;-85
2023/07/31 04:23:05;;;;;;;68.28;62.47;;;;;;;21.25;100.00;100525.69;5072876;28;20131;-85
2023/07/31 04:25:34;;;;;;;66.45;60.67;;;;;;;21.23;100.00;100528.66;5074955;28;20405;-85
2023/07/31 04:28:01;;;;;;;64.00;58.67;;;;;;;21.28;100.00;100531.31;5072480;28;20076;-85
2023/07/31 04:30:30;;;;;;;60.92;55.15;;;;;;;21.27;100.00;100535.13;5073330;28;20062;-85
2023/07/31 04:32:57;;;;;;;62.55;57.25;;;;;;;21.30;100.00;100528.34;5072860;28;20040;-85
2023/07/31 04:35:27;;;;;;;62.92;57.58;;;;;;;21.26;100.00;100525.41;5072945;28;20045;-85
2023/07/31 04:37:54;;;;;;;66.25;60.65;;;;;;;21.44;100.00;100523.94;5073553;28;20048;-85
2023/07/31 04:40:23;;;;;;;63.50;57.97;;;;;;;21.04;100.00;100531.22;5073535;28;20052;-84
2023/07/31 04:42:50;;;;;;;64.18;58.33;;;;;;;21.34;100.00;100536.69;5070779;28;20078;-85
2023/07/31 04:45:17;;;;;;;65.10;59.55;;;;;;;21.23;100.00;100528.66;5074962;28;20170;-85
2023/07/31 04:47:45;;;;;;;62.53;57.00;;;;;;;21.41;100.00;100542.59;5074974;28;20051;-84
2023/07/31 04:50:22;;;;;;;62.30;56.97;;;;;;;21.53;100.00;100544.94;5076776;28;20045;-85
2023/07/31 04:53:16;;;;;;;62.25;56.85;;;;;;;21.59;100.00;100538.41;5061690;28;20113;-84
2023/07/31 04:55:46;;;;;;;67.30;61.80;;;;;;;21.47;100.00;100541.47;5032653;28;20053;-85
2023/07/31 04:58:14;;;;;;;62.25;56.65;;;;;;;21.60;100.00;100540.81;5033662;28;21072;-85
2023/07/31 05:00:41;;;;;;;61.85;56.45;;;;;;;21.31;100.00;100543.47;5038217;28;20072;-85
2023/07/31 05:03:10;;;;;;;31.40;28.98;;;;;;;25.40;100.00;100531.69;5031895;28;20498;-83
2023/07/31 05:05:37;;;;;;;28.83;23.63;;;;;;;26.90;100.00;100505.47;5033517;28;20077;-84
2023/07/31 05:08:04;;;;;;;34.08;31.30;;;;;;;24.88;100.00;100513.03;5035303;28;20060;-87
2023/07/31 05:10:32;;;;;;;65.43;23.67;;;;;;;27.18;100.00;100506.00;5030388;28;20116;-85
2023/07/31 05:12:59;;;;;;;87.63;27.17;;;;;;;27.99;100.00;100505.16;5030316;28;20136;-85
2023/07/31 05:15:26;;;;;;;39.22;35.92;;;;;;;23.02;100.00;100528.69;5032386;28;20049;-85
2023/07/31 05:17:53;;;;;;;56.03;51.13;;;;;;;22.17;100.00;100536.50;5032333;28;20446;-81
2023/07/31 05:20:52;;;;;;;63.20;57.75;;;;;;;22.24;100.00;100546.16;5031797;28;20052;-80
2023/07/31 05:23:40;;;;;;;72.72;66.63;;;;;;;22.21;100.00;100550.28;5030409;28;20072;-80
2023/07/31 05:26:09;;;;;;;71.47;65.32;;;;;;;22.12;100.00;100546.56;5032164;28;20046;-84
2023/07/31 05:28:39;;;;;;;76.35;69.95;;;;;;;22.22;100.00;100549.19;5032834;28;20052;-84
2023/07/31 05:31:09;;;;;;;73.32;66.30;;;;;;;22.17;100.00;100555.44;5031070;28;20128;-85
2023/07/31 05:33:36;;;;;;;71.70;65.70;;;;;;;22.32;100.00;100546.34;5030896;28;20539;-85
2023/07/31 05:36:03;;;;;;;71.57;65.47;;;;;;;22.38;100.00;100553.31;5035248;28;20048;-84
2023/07/31 05:38:30;;;;;;;74.90;68.88;;;;;;;21.94;100.00;100561.63;5034136;28;20041;-81
2023/07/31 05:40:58;;;;;;;80.78;73.82;;;;;;;22.36;100.00;100562.81;5031492;28;20049;-81
2023/07/31 05:43:29;;;;;;;76.82;70.43;;;;;;;22.74;100.00;100557.47;5031478;28;20041;-81
2023/07/31 05:45:56;;;;;;;72.20;66.15;;;;;;;22.56;100.00;100559.06;5032539;28;20053;-81
2023/07/31 05:48:23;;;;;;;73.90;67.90;;;;;;;22.37;100.00;100551.69;5025163;28;20069;-80
2023/07/31 05:50:50;;;;;;;80.80;74.10;;;;;;;23.05;100.00;100569.50;5029271;28;20045;-80
2023/07/31 05:53:17;;;;;;;70.28;64.00;;;;;;;23.37;100.00;100561.75;5029386;28;20046;-80
2023/07/31 05:55:50;;;;;;;67.13;61.40;;;;;;;23.49;100.00;100564.81;5033627;28;20054;-84
2023/07/31 05:58:18;;;;;;;74.07;68.38;;;;;;;23.63;100.00;100576.50;5031117;28;20056;-80
2023/07/31 06:00:46;;;;;;;74.60;68.60;;;;;;;23.29;100.00;100576.75;5028774;28;20572;-84
2023/07/31 06:03:13;;;;;;;75.65;69.60;;;;;;;22.53;100.00;100576.66;5028950;28;20049;-82
2023/07/31 06:05:50;;;;;;;74.10;68.03;;;;;;;22.95;100.00;100563.44;5025098;28;20045;-80
2023/07/31 06:08:17;;;;;;;75.35;69.28;;;;;;;22.82;100.00;100559.53;5035633;28;20433;-84
2023/07/31 06:10:48;;;;;;;69.20;63.60;;;;;;;22.59;100.00;100558.47;5031093;28;20044;-84
2023/07/31 06:13:19;;;;;;;80.43;73.93;;;;;;;23.13;100.00;100559.94;5028608;28;20056;-79
2023/07/31 06:15:46;;;;;;;58.45;53.63;;;;;;;24.20;100.00;100562.75;5033691;28;20063;-81
2023/07/31 06:18:18;;;;;;;64.60;58.90;;;;;;;23.27;100.00;100574.38;5028560;28;20124;-82
2023/07/31 06:20:46;;;;;;;68.32;62.85;;;;;;;22.75;100.00;100580.72;5027882;28;20056;-83
2023/07/31 06:23:18;;;;;;;72.63;66.85;;;;;;;22.40;100.00;100575.47;5026694;28;20433;-87
2023/07/31 06:25:45;;;;;;;68.75;62.90;;;;;;;22.65;100.00;100584.38;5028332;28;20100;-86
2023/07/31 06:28:30;;;;;;;73.35;67.55;;;;;;;22.41;100.00;100584.38;5028783;28;20056;-88
2023/07/31 06:30:59;;;;;;;71.15;64.85;;;;;;;22.44;100.00;100575.69;5028957;28;20045;-83
2023/07/31 06:33:27;;;;;;;75.43;68.93;;;;;;;22.23;100.00;100579.72;5021577;28;20136;-87
2023/07/31 06:35:54;;;;;;;75.80;69.10;;;;;;;22.59;100.00;100585.53;5012890;28;20054;-86
2023/07/31 06:38:27;;;;;;;65.90;60.10;;;;;;;22.32;100.00;100588.81;5012932;28;20057;-83
2023/07/31 06:40:54;;;;;;;63.53;58.33;;;;;;;22.88;100.00;100588.16;5029316;28;20053;-82
2023/07/31 06:43:21;;;;;;;67.03;61.42;;;;;;;22.28;100.00;100590.50;5010777;28;20873;-83
2023/07/31 06:45:57;;;;;;;73.47;67.43;;;;;;;22.21;100.00;100593.56;5011609;28;20057;-83
2023/07/31 06:48:24;;;;;;;70.18;63.90;;;;;;;22.42;100.00;100594.13;5014166;28;20049;-83
2023/07/31 06:50:51;;;;;;;63.00;57.58;;;;;;;22.41;100.00;100596.03;5026758;28;20060;-83
2023/07/31 06:53:18;;;;;;;70.72;64.80;;;;;;;22.50;100.00;100587.28;5025830;28;20433;-83
2023/07/31 06:55:48;;;;;;;71.38;65.22;;;;;;;22.55;100.00;100588.03;5011348;28;20053;-82
2023/07/31 06:58:15;;;;;;;61.45;56.10;;;;;;;22.54;100.00;100580.19;5011285;28;20046;-83
2023/07/31 07:00:49;;;;;;;66.25;60.65;;;;;;;22.57;100.00;100579.59;5017281;28;20045;-83
2023/07/31 07:03:17;;;;;;;64.80;59.40;;;;;;;22.46;100.00;100586.25;5026627;28;20053;-83
2023/07/31 07:05:44;;;;;;;66.43;60.70;;;;;;;22.34;100.00;100581.25;5031752;28;20056;-87
2023/07/31 07:08:11;;;;;;;61.35;56.13;;;;;;;22.22;100.00;100568.09;5033882;28;20046;-88
2023/07/31 07:10:39;;;;;;;66.60;60.63;;;;;;;22.52;100.00;100583.19;5033711;28;20046;-88
2023/07/31 07:13:07;;;;;;;72.88;66.78;;;;;;;22.43;100.00;100584.91;5033361;28;20049;-88
2023/07/31 07:15:34;;;;;;;75.30;68.97;;;;;;;22.63;100.00;100592.81;5032142;28;20050;-83
2023/07/31 07:18:01;;;;;;;70.88;64.65;;;;;;;22.45;100.00;100595.44;5034563;28;20038;-83
2023/07/31 07:20:29;;;;;;;67.65;62.25;;;;;;;21.99;100.00;100585.88;5034752;28;20049;-83
2023/07/31 07:22:56;;;;;;;53.38;49.08;;;;;;;22.15;100.00;100590.06;5034910;28;20045;-88
2023/07/31 07:25:31;;;;;;;67.85;62.15;;;;;;;22.28;100.00;100599.41;5028138;28;20060;-88
2023/07/31 07:27:59;;;;;;;67.15;61.55;;;;;;;22.05;100.00;100611.78;5030937;28;20493;-83
2023/07/31 07:30:26;;;;;;;76.75;70.43;;;;;;;22.64;100.00;100604.44;5033993;28;20049;-83
2023/07/31 07:32:53;;;;;;;72.57;66.28;;;;;;;23.23;100.00;100605.81;5034278;28;20057;-83
2023/07/31 07:35:22;;;;;;;71.40;65.53;;;;;;;22.76;100.00;100591.28;5029659;28;20052;-83
2023/07/31 07:37:51;;;;;;;78.65;72.07;;;;;;;23.23;100.00;100607.75;5032872;28;20499;-83
2023/07/31 07:40:18;;;;;;;72.53;66.63;;;;;;;22.63;100.00;100609.03;5034411;28;20053;-83
2023/07/31 07:42:45;;;;;;;72.80;67.00;;;;;;;22.64;100.00;100610.66;5033977;28;20502;-84
2023/07/31 07:45:15;;;;;;;73.15;67.25;;;;;;;22.99;100.00;100602.38;5033353;28;20100;-84
2023/07/31 07:47:50;;;;;;;80.82;74.70;;;;;;;22.70;100.00;100616.81;5031893;28;20049;-87
2023/07/31 07:50:16;;;;;;;61.10;56.50;;;;;;;22.92;100.00;100610.84;5030078;28;20056;-87
2023/07/31 07:52:43;;;;;;;58.65;54.15;;;;;;;23.06;100.00;100617.19;5032587;28;20543;-83
2023/07/31 07:55:18;;;;;;;65.15;59.95;;;;;;;23.16;100.00;100621.66;5034287;28;20045;-83
2023/07/31 07:57:45;;;;;;;65.72;60.80;;;;;;;23.16;100.00;100626.28;5024982;28;20053;-83
2023/07/31 08:00:19;;;;;;;47.65;43.65;;;;;;;22.56;100.00;100621.31;5021484;28;20441;-83
2023/07/31 08:02:46;;;;;;;63.83;58.72;;;;;;;23.00;100.00;100628.38;5014058;28;20046;-83
2023/07/31 08:05:20;;;;;;;56.03;51.42;;;;;;;22.51;100.00;100624.06;5014540;28;20068;-83
2023/07/31 08:08:05;;;;;;;56.90;52.33;;;;;;;22.57;100.00;100634.56;5018475;28;20100;-83
2023/07/31 08:10:43;;;;;;;54.97;50.47;;;;;;;22.26;100.00;100630.56;5027654;28;20053;-83
2023/07/31 08:13:11;;;;;;;65.25;60.03;;;;;;;22.51;100.00;100626.75;5020890;28;20060;-83
2023/07/31 08:15:42;;;;;;;65.18;60.33;;;;;;;22.58;100.00;100624.53;5020431;28;20432;-82
2023/07/31 08:18:09;;;;;;;61.60;56.97;;;;;;;22.60;100.00;100631.28;5020746;28;20054;-83
2023/07/31 08:20:39;;;;;;;63.03;57.35;;;;;;;22.83;100.00;100626.94;5034600;28;20076;-87
2023/07/31 08:23:08;;;;;;;62.53;57.92;;;;;;;22.88;100.00;100631.47;5033494;28;20131;-88
2023/07/31 08:25:50;;;;;;;55.97;51.80;;;;;;;22.51;100.00;100633.00;5033542;28;20053;-87
2023/07/31 08:28:25;;;;;;;48.17;44.38;;;;;;;22.51;100.00;100626.75;5033010;28;20049;-88
2023/07/31 08:30:52;;;;;;;48.92;45.13;;;;;;;22.18;100.00;100634.69;5029768;28;20573;-87
2023/07/31 08:33:19;;;;;;;56.83;52.65;;;;;;;22.78;100.00;100635.09;5034318;28;20486;-87
2023/07/31 08:36:01;;;;;;;55.67;51.25;;;;;;;23.29;100.00;100628.25;5034597;28;20042;-87
2023/07/31 08:38:29;;;;;;;44.42;40.90;;;;;;;23.43;100.00;100628.31;5034500;28;20053;-88
2023/07/31 08:40:58;;;;;;;43.38;39.88;;;;;;;23.49;100.00;100619.81;5033964;28;20060;-88
2023/07/31 08:43:28;;;;;;;46.70;42.90;;;;;;;23.67;100.00;100626.31;5034186;28;20540;-87
2023/07/31 08:45:55;;;;;;;41.85;38.15;;;;;;;23.91;100.00;100631.66;5034171;28;20132;-87
2023/07/31 08:48:30;;;;;;;44.50;40.90;;;;;;;24.04;100.00;100631.97;5031991;28;20049;-82
2023/07/31 08:50:57;;;;;;;42.35;38.95;;;;;;;24.04;100.00;100632.78;5027486;28;20045;-83
2023/07/31 08:53:31;;;;;;;46.58;43.08;;;;;;;23.72;100.00;100630.88;5031715;28;20429;-83
2023/07/31 08:56:00;;;;;;;38.35;35.25;;;;;;;23.47;100.00;100626.63;5029092;28;20045;-83
2023/07/31 08:58:31;;;;;;;40.53;37.22;;;;;;;24.13;100.00;100622.03;5032795;28;20049;-86
2023/07/31 09:01:08;;;;;;;39.72;36.50;;;;;;;24.19;100.00;100629.00;5034627;28;20057;-87
2023/07/31 09:03:37;;;;;;;40.58;37.28;;;;;;;24.23;100.00;100625.38;5034397;28;20057;-88
2023/07/31 09:06:08;;;;;;;38.20;35.10;;;;;;;23.46;100.00;100628.53;5021669;28;20060;-87
2023/07/31 09:08:42;;;;;;;44.90;41.33;;;;;;;23.30;100.00;100624.44;5014402;28;20049;-86
2023/07/31 09:11:10;;;;;;;40.15;36.95;;;;;;;23.19;100.00;100625.69;5016169;28;20058;-87
2023/07/31 09:13:39;;;;;;;38.83;35.70;;;;;;;23.30;100.00;100624.44;5015085;28;20046;-87
2023/07/31 09:16:10;;;;;;;43.35;39.95;;;;;;;22.95;100.00;100625.72;5013954;28;20050;-87
2023/07/31 09:19:03;;;;;;;50.40;46.20;;;;;;;23.97;100.00;100640.50;5014361;28;20045;-87
2023/07/31 09:21:30;;;;;;;47.13;43.45;;;;;;;24.22;100.00;100631.09;5006264;28;20061;-86
2023/07/31 09:24:01;;;;;;;50.22;46.33;;;;;;;24.98;100.00;100623.38;5024468;28;20073;-83
2023/07/31 09:26:54;;;;;;;40.80;37.50;;;;;;;24.34;100.00;100628.72;5033301;28;20517;-86
2023/07/31 09:29:30;;;;;;;48.53;44.72;;;;;;;24.99;100.00;100624.19;5032440;28;20054;-87
2023/07/31 09:32:17;;;;;;;50.72;46.83;;;;;;;25.19;100.00;100615.63;5033863;28;20050;-87
2023/07/31 09:34:56;;;;;;;43.35;39.83;;;;;;;24.14;100.00;100619.03;5033664;28;20057;-87
2023/07/31 09:37:24;;;;;;;53.78;49.38;;;;;;;24.50;100.00;100612.16;5014746;28;20065;-87
2023/07/31 09:39:54;;;;;;;47.17;43.17;;;;;;;25.71;100.00;100602.41;5033662;28;20041;-86
2023/07/31 09:46:15;;;;;;;45.10;41.65;;;;;;;26.69;100.00;100598.75;5033995;28;20102;-86
2023/07/31 09:48:42;;;;;;;40.20;37.10;;;;;;;26.63;100.00;100605.47;5033905;28;20056;-87
2023/07/31 09:54:55;;;;;;;29.10;26.48;;;;;;;26.32;100.00;100610.13;5023169;28;20521;-86
2023/07/31 09:57:35;;;;;;;29.58;27.20;;;;;;;26.33;100.00;100603.56;5030478;28;20103;-87
2023/07/31 10:00:17;;;;;;;30.98;28.38;;;;;;;26.80;100.00;100607.41;5033198;28;20045;-87
2023/07/31 10:02:52;;;;;;;31.67;29.08;;;;;;;26.79;100.00;100602.28;5028698;28;20072;-86
2023/07/31 10:05:37;;;;;;;31.67;29.08;;;;;;;25.97;100.00;100602.59;5033237;28;20402;-87
2023/07/31 10:08:16;;;;;;;27.58;25.48;;;;;;;25.26;100.00;100605.09;5033178;28;20049;-88
2023/07/31 10:10:53;;;;;;;28.88;26.63;;;;;;;24.98;100.00;100609.00;5032302;28;20049;-86
2023/07/31 10:13:22;;;;;;;31.30;28.70;;;;;;;26.22;100.00;100603.84;5032972;28;20049;-87
2023/07/31 10:15:49;;;;;;;32.05;29.63;;;;;;;26.53;100.00;100596.78;5018729;28;20573;-87
2023/07/31 10:18:19;;;;;;;27.13;25.13;;;;;;;26.44;100.00;100594.78;5033170;28;20065;-87
2023/07/31 10:21:15;;;;;;;28.40;25.75;;;;;;;26.49;100.00;100594.69;5028009;28;20053;-86
2023/07/31 10:23:57;;;;;;;27.63;25.23;;;;;;;26.64;100.00;100587.19;5032731;28;20056;-86
2023/07/31 10:26:28;;;;;;;;;;;;;;;27.17;100.00;100589.69;5032314;28;20045;-83
2023/07/31 10:29:11;;;;;;;29.58;27.27;;;;;;;27.28;100.00;100584.72;5032751;28;19929;-87
2023/07/31 10:31:39;;;;;;;26.58;24.48;;;;;;;27.04;100.00;100578.91;5032799;28;20518;-83
2023/07/31 10:34:14;;;;;;;27.63;25.42;;;;;;;27.08;100.00;100574.41;5031551;28;20064;-84
2023/07/31 10:36:41;;;;;;;31.60;29.23;;;;;;;27.88;100.00;100579.53;5014077;28;20109;-83
2023/07/31 10:39:34;;;;;;;30.50;28.30;;;;;;;28.30;100.00;100577.75;5019379;28;20108;-83
2023/07/31 10:42:15;;;;;;;28.50;26.30;;;;;;;28.25;100.00;100569.72;5021452;28;20042;-84
2023/07/31 10:44:46;;;;;;;33.15;30.75;;;;;;;28.74;100.00;100573.66;5011858;28;20046;-83
2023/07/31 10:47:16;;;;;;;32.65;30.33;;;;;;;29.34;100.00;100562.59;5012554;28;20074;-83
2023/07/31 10:49:48;;;;;;;32.97;30.30;;;;;;;29.48;100.00;100551.38;5031677;28;20067;-87
2023/07/31 10:52:26;;;;;;;33.50;31.02;;;;;;;28.26;100.00;100569.41;5024584;28;20058;-86
2023/07/31 10:55:15;;;;;;;32.35;29.98;;;;;;;27.96;100.00;100559.56;5018946;28;20050;-83
2023/07/31 10:57:49;;;;;;;31.80;29.38;;;;;;;28.61;100.00;100565.72;5032394;28;20045;-87
2023/07/31 11:00:21;;;;;;;32.20;29.85;;;;;;;28.37;100.00;100555.38;5030258;28;20048;-84
2023/07/31 11:03:17;;;;;;;30.20;28.00;;;;;;;28.38;100.00;100549.56;5024089;28;20042;-85
2023/07/31 11:05:54;;;;;;;31.92;29.50;;;;;;;27.78;100.00;100547.94;5029097;28;20069;-83
2023/07/31 11:08:24;;;;;;;31.35;28.83;;;;;;;28.26;100.00;100550.31;5021604;28;20115;-84
2023/07/31 11:11:05;;;;;;;32.42;29.65;;;;;;;28.14;100.00;100544.75;5031070;28;20432;-84
2023/07/31 11:13:35;;;;;;;32.88;30.38;;;;;;;28.09;100.00;100540.25;5016966;28;20057;-83
2023/07/31 11:16:03;;;;;;;30.33;28.05;;;;;;;27.49;100.00;100554.06;5011175;28;20066;-84
2023/07/31 11:18:30;;;;;;;29.85;27.48;;;;;;;27.22;100.00;100544.31;5012328;28;20046;-86
2023/07/31 11:20:58;;;;;;;30.70;28.40;;;;;;;26.30;100.00;100544.31;5012574;28;20062;-87
2023/07/31 11:23:46;;;;;;;29.70;27.30;;;;;;;26.07;100.00;100555.25;5012860;28;20062;-86
2023/07/31 11:26:38;;;;;;;31.58;28.90;;;;;;;26.79;100.00;100550.53;5012681;28;20046;-86
2023/07/31 11:29:12;;;;;;;32.03;29.40;;;;;;;26.50;100.00;100539.09;5012903;28;20064;-86